createdAt,value
2018-08-20T00:00:05.944Z,0.00
2018-08-20T00:01:05.875Z,0.00
2018-08-20T00:02:05.804Z,0.00
2018-08-20T00:03:05.740Z,0.00
2018-08-20T00:04:05.660Z,0.00
2018-08-20T00:05:05.589Z,0.00
2018-08-20T00:06:05.515Z,0.00
2018-08-20T00:07:05.444Z,0.00
2018-08-20T00:08:05.373Z,0.00
2018-08-20T00:09:05.304Z,0.00
2018-08-20T00:10:05.229Z,0.00
2018-08-20T00:11:05.161Z,0.00
2018-08-20T00:12:05.088Z,0.00
2018-08-20T00:13:05.044Z,0.00
2018-08-20T00:14:04.946Z,0.00
2018-08-20T00:15:04.878Z,0.00
2018-08-20T00:16:04.802Z,0.00
2018-08-20T00:17:04.732Z,0.00
2018-08-20T00:18:04.657Z,0.00
2018-08-20T00:19:04.588Z,0.00
2018-08-20T00:20:04.516Z,0.00
2018-08-20T00:21:04.446Z,0.00
2018-08-20T00:22:04.380Z,0.00
2018-08-20T00:23:04.300Z,0.00
2018-08-20T00:24:04.232Z,0.00
2018-08-20T00:25:04.161Z,0.00
2018-08-20T00:26:04.089Z,0.00
2018-08-20T00:27:04.017Z,0.00
2018-08-20T00:28:03.949Z,0.00
2018-08-20T00:29:03.875Z,0.00
2018-08-20T00:30:03.803Z,0.00
2018-08-20T00:31:03.734Z,0.00
2018-08-20T00:32:03.659Z,0.00
2018-08-20T00:33:03.591Z,0.00
2018-08-20T00:34:03.518Z,0.00
2018-08-20T00:35:03.446Z,0.00
2018-08-20T00:36:03.374Z,0.00
2018-08-20T00:37:03.304Z,0.00
2018-08-20T00:38:03.237Z,0.00
2018-08-20T00:39:03.159Z,0.00
2018-08-20T00:40:03.088Z,0.00
2018-08-20T00:41:03.017Z,0.00
2018-08-20T00:42:02.949Z,0.00
2018-08-20T00:43:02.874Z,0.00
2018-08-20T00:44:02.802Z,0.00
2018-08-20T00:45:02.732Z,0.00
2018-08-20T00:46:02.657Z,0.00
2018-08-20T00:47:02.587Z,0.00
2018-08-20T00:48:02.514Z,0.00
2018-08-20T00:49:02.443Z,0.00
2018-08-20T00:50:02.376Z,0.00
2018-08-20T00:51:02.307Z,0.00
2018-08-20T00:52:02.231Z,0.00
2018-08-20T00:53:02.159Z,0.00
2018-08-20T00:54:02.086Z,0.00
2018-08-20T00:55:02.016Z,0.00
2018-08-20T00:56:01.947Z,0.00
2018-08-20T00:57:01.883Z,0.00
2018-08-20T00:58:01.798Z,0.00
2018-08-20T00:59:01.726Z,0.00
2018-08-20T01:00:01.660Z,0.00
2018-08-20T01:01:01.588Z,0.00
2018-08-20T01:02:01.517Z,0.00
2018-08-20T01:03:01.469Z,0.00
2018-08-20T01:04:01.371Z,0.00
2018-08-20T01:05:01.304Z,0.00
2018-08-20T01:06:01.228Z,0.00
2018-08-20T01:07:01.155Z,0.00
2018-08-20T01:08:01.083Z,0.00
2018-08-20T01:09:01.014Z,0.00
2018-08-20T01:10:00.937Z,0.00
2018-08-20T01:11:00.865Z,0.00
2018-08-20T01:12:00.793Z,0.00
2018-08-20T01:13:00.724Z,0.00
2018-08-20T01:14:00.650Z,0.00
2018-08-20T01:15:00.583Z,0.00
2018-08-20T01:16:00.508Z,0.00
2018-08-20T01:17:00.434Z,0.00
2018-08-20T01:18:00.363Z,0.00
2018-08-20T01:19:00.292Z,0.00
2018-08-20T01:20:00.224Z,0.00
2018-08-20T01:21:00.149Z,0.00
2018-08-20T01:22:00.075Z,0.00
2018-08-20T01:23:00.005Z,0.00
2018-08-20T01:23:59.932Z,0.00
2018-08-20T01:24:59.864Z,0.00
2018-08-20T01:25:59.790Z,0.00
2018-08-20T01:26:59.715Z,0.00
2018-08-20T01:27:59.644Z,0.00
2018-08-20T01:28:59.576Z,0.00
2018-08-20T01:29:59.501Z,0.00
2018-08-20T01:30:59.427Z,0.00
2018-08-20T01:31:59.360Z,0.00
2018-08-20T01:32:59.284Z,0.00
2018-08-20T01:33:59.212Z,0.00
2018-08-20T01:34:59.141Z,0.00
2018-08-20T01:35:59.078Z,0.00
2018-08-20T01:36:58.998Z,0.00
2018-08-20T01:37:58.924Z,0.00
2018-08-20T01:38:58.869Z,0.00
2018-08-20T01:39:58.781Z,0.00
2018-08-20T01:40:58.710Z,0.00
2018-08-20T01:41:58.637Z,0.00
2018-08-20T01:42:58.562Z,0.00
2018-08-20T01:43:58.494Z,0.00
2018-08-20T01:44:58.422Z,0.00
2018-08-20T01:45:58.348Z,0.00
2018-08-20T01:46:58.284Z,0.00
2018-08-20T01:47:58.203Z,0.00
2018-08-20T01:48:58.132Z,0.00
2018-08-20T01:49:58.060Z,0.00
2018-08-20T01:50:57.987Z,0.00
2018-08-20T01:51:57.916Z,0.00
2018-08-20T01:52:57.844Z,0.00
2018-08-20T01:53:57.773Z,0.00
2018-08-20T01:54:57.704Z,0.00
2018-08-20T01:55:57.626Z,0.00
2018-08-20T01:56:57.557Z,0.00
2018-08-20T01:57:57.488Z,0.00
2018-08-20T01:58:57.410Z,0.00
2018-08-20T01:59:57.344Z,0.00
2018-08-20T02:00:57.275Z,0.00
2018-08-20T02:01:57.194Z,0.00
2018-08-20T02:02:57.121Z,0.00
2018-08-20T02:03:57.050Z,0.00
2018-08-20T02:04:56.977Z,0.00
2018-08-20T02:05:56.908Z,0.00
2018-08-20T02:06:56.833Z,0.00
2018-08-20T02:07:56.759Z,0.00
2018-08-20T02:08:56.686Z,0.00
2018-08-20T02:09:56.618Z,0.00
2018-08-20T02:10:56.545Z,0.00
2018-08-20T02:11:56.473Z,0.00
2018-08-20T02:12:56.400Z,0.00
2018-08-20T02:13:56.326Z,0.00
2018-08-20T02:14:56.253Z,0.00
2018-08-20T02:15:56.184Z,0.00
2018-08-20T02:16:56.113Z,0.00
2018-08-20T02:17:56.041Z,0.00
2018-08-20T02:18:55.966Z,0.00
2018-08-20T02:19:55.894Z,0.00
2018-08-20T02:20:55.822Z,0.00
2018-08-20T02:21:55.748Z,0.00
2018-08-20T02:22:55.675Z,0.00
2018-08-20T02:23:55.602Z,0.00
2018-08-20T02:24:55.530Z,0.00
2018-08-20T02:25:55.458Z,0.00
2018-08-20T02:26:55.385Z,0.00
2018-08-20T02:27:55.315Z,0.00
2018-08-20T02:28:55.241Z,0.00
2018-08-20T02:29:55.169Z,0.00
2018-08-20T02:30:55.097Z,0.00
2018-08-20T02:31:55.044Z,0.00
2018-08-20T02:32:54.952Z,0.00
2018-08-20T02:33:54.880Z,0.00
2018-08-20T02:34:54.806Z,0.00
2018-08-20T02:35:54.734Z,0.00
2018-08-20T02:36:54.662Z,0.00
2018-08-20T02:37:54.587Z,0.00
2018-08-20T02:38:54.516Z,0.00
2018-08-20T02:39:54.451Z,0.00
2018-08-20T02:40:54.369Z,0.00
2018-08-20T02:41:54.302Z,0.00
2018-08-20T02:42:54.227Z,0.00
2018-08-20T02:43:54.154Z,0.00
2018-08-20T02:44:54.081Z,0.00
2018-08-20T02:45:54.013Z,0.00
2018-08-20T02:46:53.938Z,0.00
2018-08-20T02:47:53.865Z,0.00
2018-08-20T02:48:53.790Z,0.00
2018-08-20T02:49:53.717Z,0.00
2018-08-20T02:50:53.648Z,0.00
2018-08-20T02:51:53.578Z,0.00
2018-08-20T02:52:53.499Z,0.00
2018-08-20T02:53:53.430Z,0.00
2018-08-20T02:54:53.355Z,0.00
2018-08-20T02:55:53.283Z,0.00
2018-08-20T02:56:53.214Z,0.00
2018-08-20T02:57:53.136Z,0.00
2018-08-20T02:58:53.068Z,0.00
2018-08-20T02:59:53.000Z,0.00
2018-08-20T03:00:52.920Z,0.00
2018-08-20T03:01:52.848Z,0.00
2018-08-20T03:02:52.780Z,0.00
2018-08-20T03:03:52.705Z,0.00
2018-08-20T03:04:52.637Z,0.00
2018-08-20T03:05:52.568Z,0.00
2018-08-20T03:06:52.485Z,0.00
2018-08-20T03:07:52.410Z,0.00
2018-08-20T03:08:52.344Z,0.00
2018-08-20T03:09:52.265Z,0.00
2018-08-20T03:10:52.197Z,0.00
2018-08-20T03:11:52.121Z,0.00
2018-08-20T03:12:52.048Z,0.00
2018-08-20T03:13:51.974Z,0.00
2018-08-20T03:14:51.904Z,0.00
2018-08-20T03:15:51.831Z,0.00
2018-08-20T03:16:51.767Z,0.00
2018-08-20T03:17:51.685Z,0.00
2018-08-20T03:18:51.611Z,0.00
2018-08-20T03:19:51.539Z,0.00
2018-08-20T03:20:51.471Z,0.00
2018-08-20T03:21:51.397Z,0.00
2018-08-20T03:22:51.322Z,0.00
2018-08-20T03:23:51.247Z,0.00
2018-08-20T03:24:51.179Z,0.00
2018-08-20T03:25:51.105Z,0.00
2018-08-20T03:26:51.031Z,0.00
2018-08-20T03:27:50.960Z,0.00
2018-08-20T03:28:50.888Z,0.00
2018-08-20T03:29:50.813Z,0.00
2018-08-20T03:30:50.746Z,0.00
2018-08-20T03:31:50.670Z,0.00
2018-08-20T03:32:50.596Z,0.00
2018-08-20T03:33:50.521Z,0.00
2018-08-20T03:34:50.451Z,0.00
2018-08-20T03:35:50.382Z,0.00
2018-08-20T03:36:50.305Z,0.00
2018-08-20T03:37:50.233Z,0.00
2018-08-20T03:38:50.158Z,0.00
2018-08-20T03:39:50.089Z,0.00
2018-08-20T03:40:50.015Z,0.00
2018-08-20T03:41:49.939Z,0.00
2018-08-20T03:42:49.867Z,0.00
2018-08-20T03:43:49.794Z,0.00
2018-08-20T03:44:49.726Z,0.00
2018-08-20T03:45:49.650Z,0.00
2018-08-20T03:46:49.576Z,0.00
2018-08-20T03:47:49.504Z,0.00
2018-08-20T03:48:49.437Z,0.00
2018-08-20T03:49:49.359Z,0.00
2018-08-20T03:50:49.287Z,0.00
2018-08-20T03:51:49.213Z,0.00
2018-08-20T03:52:49.140Z,0.00
2018-08-20T03:53:49.066Z,0.00
2018-08-20T03:54:48.994Z,0.00
2018-08-20T03:55:48.920Z,0.00
2018-08-20T03:56:48.852Z,0.00
2018-08-20T03:57:48.777Z,0.00
2018-08-20T03:58:48.701Z,0.00
2018-08-20T03:59:48.629Z,0.00
2018-08-20T04:00:48.556Z,0.00
2018-08-20T04:01:48.482Z,0.00
2018-08-20T04:02:48.412Z,0.00
2018-08-20T04:03:48.339Z,0.00
2018-08-20T04:04:48.265Z,0.00
2018-08-20T04:05:48.197Z,0.00
2018-08-20T04:06:48.121Z,0.00
2018-08-20T04:07:48.047Z,0.00
2018-08-20T04:08:47.973Z,5.63
2018-08-20T04:09:47.901Z,5.63
2018-08-20T04:10:47.832Z,5.63
2018-08-20T04:11:47.757Z,5.63
2018-08-20T04:12:47.684Z,5.63
2018-08-20T04:13:47.607Z,5.63
2018-08-20T04:14:47.537Z,5.63
2018-08-20T04:15:47.468Z,5.63
2018-08-20T04:16:47.392Z,11.25
2018-08-20T04:17:47.318Z,11.25
2018-08-20T04:18:47.246Z,11.25
2018-08-20T04:19:47.182Z,11.25
2018-08-20T04:20:47.100Z,11.25
2018-08-20T04:21:47.026Z,11.25
2018-08-20T04:22:46.952Z,16.88
2018-08-20T04:23:46.894Z,16.88
2018-08-20T04:24:46.822Z,16.88
2018-08-20T04:25:46.733Z,22.50
2018-08-20T04:26:46.665Z,22.50
2018-08-20T04:27:46.588Z,22.50
2018-08-20T04:28:46.516Z,22.50
2018-08-20T04:29:46.450Z,22.50
2018-08-20T04:30:46.417Z,22.50
2018-08-20T04:31:46.303Z,22.50
2018-08-20T04:32:46.225Z,22.50
2018-08-20T04:33:46.149Z,22.50
2018-08-20T04:34:46.080Z,22.50
2018-08-20T04:35:46.004Z,22.50
2018-08-20T04:36:45.933Z,22.50
2018-08-20T04:37:45.859Z,28.13
2018-08-20T04:38:45.787Z,28.13
2018-08-20T04:39:45.714Z,28.13
2018-08-20T04:40:45.640Z,28.13
2018-08-20T04:41:45.572Z,33.75
2018-08-20T04:42:45.498Z,33.75
2018-08-20T04:43:45.424Z,33.75
2018-08-20T04:44:45.352Z,39.38
2018-08-20T04:45:45.276Z,39.38
2018-08-20T04:46:45.202Z,39.38
2018-08-20T04:47:45.131Z,39.38
2018-08-20T04:48:45.064Z,45.00
2018-08-20T04:49:45.006Z,45.00
2018-08-20T04:50:45.011Z,45.00
2018-08-20T04:51:44.840Z,45.00
2018-08-20T04:52:44.770Z,50.63
2018-08-20T04:53:44.692Z,50.63
2018-08-20T04:54:44.622Z,50.63
2018-08-20T04:55:44.547Z,56.25
2018-08-20T04:56:44.475Z,56.25
2018-08-20T04:57:44.399Z,61.88
2018-08-20T04:58:44.328Z,61.88
2018-08-20T04:59:44.257Z,67.50
2018-08-20T05:00:44.183Z,67.50
2018-08-20T05:01:44.114Z,67.50
2018-08-20T05:02:44.039Z,67.50
2018-08-20T05:03:43.966Z,73.13
2018-08-20T05:04:43.891Z,73.13
2018-08-20T05:05:43.820Z,73.13
2018-08-20T05:06:43.748Z,73.13
2018-08-20T05:07:43.673Z,73.13
2018-08-20T05:08:43.604Z,73.13
2018-08-20T05:09:43.534Z,73.13
2018-08-20T05:10:43.456Z,73.13
2018-08-20T05:11:43.385Z,73.13
2018-08-20T05:12:43.312Z,73.13
2018-08-20T05:13:43.238Z,73.13
2018-08-20T05:14:43.169Z,78.75
2018-08-20T05:15:43.090Z,78.75
2018-08-20T05:16:43.020Z,78.75
2018-08-20T05:17:42.946Z,78.75
2018-08-20T05:18:42.886Z,78.75
2018-08-20T05:19:42.798Z,84.38
2018-08-20T05:20:42.728Z,84.38
2018-08-20T05:21:42.655Z,84.38
2018-08-20T05:22:42.582Z,84.38
2018-08-20T05:23:42.512Z,90.00
2018-08-20T05:24:42.446Z,90.00
2018-08-20T05:25:42.365Z,90.00
2018-08-20T05:26:42.293Z,95.63
2018-08-20T05:27:42.216Z,95.63
2018-08-20T05:28:42.143Z,95.63
2018-08-20T05:29:42.076Z,95.63
2018-08-20T05:30:42.000Z,101.25
2018-08-20T05:31:41.943Z,101.25
2018-08-20T05:32:41.859Z,101.25
2018-08-20T05:33:41.783Z,101.25
2018-08-20T05:34:41.712Z,106.88
2018-08-20T05:35:41.640Z,106.88
2018-08-20T05:36:41.562Z,106.88
2018-08-20T05:37:41.491Z,106.88
2018-08-20T05:38:41.420Z,106.88
2018-08-20T05:39:41.347Z,106.88
2018-08-20T05:40:41.283Z,112.50
2018-08-20T05:41:41.203Z,112.50
2018-08-20T05:42:41.131Z,118.13
2018-08-20T05:43:41.053Z,118.13
2018-08-20T05:44:41.002Z,118.13
2018-08-20T05:45:40.949Z,118.13
2018-08-20T05:46:40.837Z,118.13
2018-08-20T05:47:40.763Z,123.75
2018-08-20T05:48:40.697Z,123.75
2018-08-20T05:49:40.616Z,123.75
2018-08-20T05:50:40.548Z,123.75
2018-08-20T05:51:40.488Z,129.38
2018-08-20T05:52:40.449Z,129.38
2018-08-20T05:53:40.329Z,129.38
2018-08-20T05:54:40.255Z,129.38
2018-08-20T05:55:40.185Z,129.38
2018-08-20T05:56:40.111Z,135.00
2018-08-20T05:57:40.040Z,135.00
2018-08-20T05:58:39.971Z,135.00
2018-08-20T05:59:39.893Z,135.00
2018-08-20T06:00:39.825Z,140.63
2018-08-20T06:01:39.749Z,140.63
2018-08-20T06:02:39.675Z,140.63
2018-08-20T06:03:39.604Z,140.63
2018-08-20T06:04:39.534Z,140.63
2018-08-20T06:05:39.457Z,146.25
2018-08-20T06:06:39.389Z,146.25
2018-08-20T06:07:39.325Z,146.25
2018-08-20T06:08:39.243Z,151.88
2018-08-20T06:09:39.171Z,151.88
2018-08-20T06:10:39.109Z,151.88
2018-08-20T06:11:39.028Z,151.88
2018-08-20T06:12:38.955Z,151.88
2018-08-20T06:13:38.901Z,151.88
2018-08-20T06:14:38.822Z,151.88
2018-08-20T06:15:38.744Z,151.88
2018-08-20T06:16:38.667Z,151.88
2018-08-20T06:17:38.592Z,151.88
2018-08-20T06:18:38.538Z,157.50
2018-08-20T06:19:38.449Z,157.50
2018-08-20T06:20:38.382Z,163.13
2018-08-20T06:21:38.314Z,163.13
2018-08-20T06:22:38.329Z,168.75
2018-08-20T06:23:38.164Z,174.38
2018-08-20T06:24:38.099Z,185.63
2018-08-20T06:25:38.019Z,185.63
2018-08-20T06:26:37.948Z,196.88
2018-08-20T06:27:37.880Z,219.38
2018-08-20T06:28:37.863Z,225.00
2018-08-20T06:29:37.738Z,230.63
2018-08-20T06:30:37.665Z,225.00
2018-08-20T06:31:37.611Z,219.38
2018-08-20T06:32:37.542Z,225.00
2018-08-20T06:33:37.446Z,225.00
2018-08-20T06:34:37.375Z,230.63
2018-08-20T06:35:37.327Z,219.38
2018-08-20T06:36:37.231Z,202.50
2018-08-20T06:37:37.160Z,191.25
2018-08-20T06:38:37.088Z,196.88
2018-08-20T06:39:37.018Z,196.88
2018-08-20T06:40:36.948Z,213.75
2018-08-20T06:41:36.936Z,236.25
2018-08-20T06:42:36.807Z,213.75
2018-08-20T06:43:36.735Z,213.75
2018-08-20T06:44:36.669Z,230.63
2018-08-20T06:45:36.597Z,213.75
2018-08-20T06:46:36.519Z,225.00
2018-08-20T06:47:36.450Z,208.13
2018-08-20T06:48:36.403Z,196.88
2018-08-20T06:49:36.308Z,196.88
2018-08-20T06:50:36.234Z,185.63
2018-08-20T06:51:36.164Z,185.63
2018-08-20T06:52:36.096Z,191.25
2018-08-20T06:53:36.022Z,191.25
2018-08-20T06:54:35.972Z,196.88
2018-08-20T06:55:36.952Z,202.50
2018-08-20T06:56:35.808Z,208.13
2018-08-20T06:57:35.736Z,219.38
2018-08-20T06:58:35.670Z,225.00
2018-08-20T06:59:35.596Z,247.50
2018-08-20T07:00:35.525Z,247.50
2018-08-20T07:01:35.455Z,236.25
2018-08-20T07:02:35.382Z,264.38
2018-08-20T07:03:35.314Z,264.38
2018-08-20T07:04:35.244Z,258.75
2018-08-20T07:05:35.172Z,264.38
2018-08-20T07:06:35.110Z,264.38
2018-08-20T07:07:35.030Z,270.00
2018-08-20T07:08:34.964Z,270.00
2018-08-20T07:09:34.900Z,264.38
2018-08-20T07:10:34.823Z,258.75
2018-08-20T07:11:34.763Z,258.75
2018-08-20T07:12:34.754Z,253.13
2018-08-20T07:13:34.672Z,247.50
2018-08-20T07:14:34.615Z,247.50
2018-08-20T07:15:34.524Z,236.25
2018-08-20T07:16:34.480Z,230.63
2018-08-20T07:17:34.421Z,230.63
2018-08-20T07:18:34.291Z,230.63
2018-08-20T07:19:34.293Z,219.38
2018-08-20T07:20:34.118Z,219.38
2018-08-20T07:21:34.103Z,213.75
2018-08-20T07:22:34.030Z,202.50
2018-08-20T07:23:34.132Z,208.13
2018-08-20T07:24:33.919Z,213.75
2018-08-20T07:25:33.831Z,208.13
2018-08-20T07:26:33.779Z,208.13
2018-08-20T07:27:33.712Z,213.75
2018-08-20T07:28:33.626Z,185.63
2018-08-20T07:29:33.560Z,191.25
2018-08-20T07:30:33.481Z,180.00
2018-08-20T07:31:33.405Z,196.88
2018-08-20T07:32:33.331Z,208.13
2018-08-20T07:33:33.299Z,213.75
2018-08-20T07:34:33.192Z,202.50
2018-08-20T07:35:33.130Z,219.38
2018-08-20T07:36:33.066Z,213.75
2018-08-20T07:37:32.990Z,219.38
2018-08-20T07:38:32.937Z,219.38
2018-08-20T07:39:32.838Z,219.38
2018-08-20T07:40:32.782Z,219.38
2018-08-20T07:41:32.724Z,219.38
2018-08-20T07:42:33.642Z,219.38
2018-08-20T07:43:32.576Z,219.38
2018-08-20T07:44:32.518Z,219.38
2018-08-20T07:45:32.423Z,219.38
2018-08-20T07:46:32.298Z,219.38
2018-08-20T07:47:32.286Z,219.38
2018-08-20T07:48:32.207Z,219.38
2018-08-20T07:49:32.802Z,225.00
2018-08-20T07:50:32.064Z,225.00
2018-08-20T07:51:33.017Z,219.38
2018-08-20T07:52:31.924Z,225.00
2018-08-20T07:53:31.857Z,225.00
2018-08-20T07:54:31.800Z,225.00
2018-08-20T07:55:31.753Z,230.63
2018-08-20T07:56:33.321Z,230.63
2018-08-20T07:57:31.578Z,236.25
2018-08-20T07:58:31.452Z,213.75
2018-08-20T07:59:31.375Z,230.63
2018-08-20T08:00:31.304Z,213.75
2018-08-20T08:01:31.238Z,208.13
2018-08-20T08:02:31.179Z,208.13
2018-08-20T08:03:31.119Z,213.75
2018-08-20T08:04:31.069Z,225.00
2018-08-20T08:05:30.959Z,236.25
2018-08-20T08:06:30.902Z,236.25
2018-08-20T08:07:30.823Z,236.25
2018-08-20T08:08:30.750Z,241.88
2018-08-20T08:09:30.676Z,247.50
2018-08-20T08:10:30.608Z,247.50
2018-08-20T08:11:30.541Z,253.13
2018-08-20T08:12:30.466Z,264.38
2018-08-20T08:13:30.398Z,281.25
2018-08-20T08:14:30.330Z,281.25
2018-08-20T08:15:30.267Z,270.00
2018-08-20T08:16:30.189Z,247.50
2018-08-20T08:17:30.123Z,253.13
2018-08-20T08:18:30.051Z,247.50
2018-08-20T08:19:29.984Z,253.13
2018-08-20T08:20:29.912Z,247.50
2018-08-20T08:21:29.843Z,258.75
2018-08-20T08:22:29.777Z,258.75
2018-08-20T08:23:29.708Z,258.75
2018-08-20T08:24:29.632Z,264.38
2018-08-20T08:25:29.565Z,270.00
2018-08-20T08:26:29.551Z,264.38
2018-08-20T08:27:29.431Z,253.13
2018-08-20T08:28:29.354Z,247.50
2018-08-20T08:29:29.290Z,247.50
2018-08-20T08:30:29.218Z,225.00
2018-08-20T08:31:29.158Z,247.50
2018-08-20T08:32:29.082Z,247.50
2018-08-20T08:33:29.007Z,247.50
2018-08-20T08:34:28.942Z,241.88
2018-08-20T08:35:28.873Z,241.88
2018-08-20T08:36:28.805Z,241.88
2018-08-20T08:37:28.736Z,247.50
2018-08-20T08:38:28.663Z,247.50
2018-08-20T08:39:28.593Z,247.50
2018-08-20T08:40:28.527Z,253.13
2018-08-20T08:41:28.455Z,253.13
2018-08-20T08:42:28.385Z,253.13
2018-08-20T08:43:28.315Z,258.75
2018-08-20T08:44:28.245Z,258.75
2018-08-20T08:45:28.176Z,270.00
2018-08-20T08:46:28.109Z,264.38
2018-08-20T08:47:28.041Z,264.38
2018-08-20T08:48:27.970Z,264.38
2018-08-20T08:49:27.903Z,270.00
2018-08-20T08:50:27.834Z,270.00
2018-08-20T08:51:27.761Z,270.00
2018-08-20T08:52:27.698Z,298.13
2018-08-20T08:53:27.636Z,309.38
2018-08-20T08:54:27.558Z,331.88
2018-08-20T08:55:27.486Z,343.13
2018-08-20T08:56:27.434Z,337.50
2018-08-20T08:57:27.360Z,303.75
2018-08-20T08:58:27.281Z,309.38
2018-08-20T08:59:27.220Z,286.88
2018-08-20T09:00:27.220Z,292.50
2018-08-20T09:01:27.078Z,315.00
2018-08-20T09:02:27.011Z,320.63
2018-08-20T09:03:26.936Z,309.38
2018-08-20T09:04:26.870Z,309.38
2018-08-20T09:05:26.802Z,303.75
2018-08-20T09:06:26.731Z,298.13
2018-08-20T09:07:26.689Z,292.50
2018-08-20T09:08:26.598Z,298.13
2018-08-20T09:09:26.525Z,303.75
2018-08-20T09:10:26.492Z,303.75
2018-08-20T09:11:26.386Z,298.13
2018-08-20T09:12:26.328Z,292.50
2018-08-20T09:13:26.256Z,286.88
2018-08-20T09:14:26.184Z,286.88
2018-08-20T09:15:26.114Z,286.88
2018-08-20T09:16:26.051Z,286.88
2018-08-20T09:17:25.978Z,286.88
2018-08-20T09:18:25.910Z,286.88
2018-08-20T09:19:25.845Z,286.88
2018-08-20T09:20:25.773Z,286.88
2018-08-20T09:21:25.701Z,286.88
2018-08-20T09:22:25.635Z,292.50
2018-08-20T09:23:25.567Z,298.13
2018-08-20T09:24:25.511Z,298.13
2018-08-20T09:25:32.648Z,298.13
2018-08-20T09:27:29.309Z,298.13
2018-08-20T09:28:29.190Z,298.13
2018-08-20T09:29:29.124Z,298.13
2018-08-20T09:30:29.054Z,292.50
2018-08-20T09:31:28.984Z,292.50
2018-08-20T09:32:28.918Z,298.13
2018-08-20T09:33:28.848Z,298.13
2018-08-20T09:34:28.780Z,298.13
2018-08-20T09:35:28.712Z,292.50
2018-08-20T09:36:28.650Z,298.13
2018-08-20T09:37:28.576Z,298.13
2018-08-20T09:38:28.508Z,298.13
2018-08-20T09:39:28.447Z,303.75
2018-08-20T09:40:28.371Z,298.13
2018-08-20T09:41:28.303Z,303.75
2018-08-20T09:42:28.234Z,303.75
2018-08-20T09:43:28.172Z,309.38
2018-08-20T09:44:28.100Z,309.38
2018-08-20T09:45:28.036Z,309.38
2018-08-20T09:46:27.961Z,309.38
2018-08-20T09:47:27.895Z,315.00
2018-08-20T09:48:27.826Z,315.00
2018-08-20T09:49:27.758Z,315.00
2018-08-20T09:50:27.688Z,315.00
2018-08-20T09:51:27.621Z,320.63
2018-08-20T09:52:27.552Z,326.25
2018-08-20T09:53:27.494Z,326.25
2018-08-20T09:54:27.416Z,320.63
2018-08-20T09:55:27.350Z,320.63
2018-08-20T09:56:27.287Z,320.63
2018-08-20T09:57:27.215Z,320.63
2018-08-20T09:58:27.145Z,320.63
2018-08-20T09:59:27.081Z,320.63
2018-08-20T10:00:27.010Z,320.63
2018-08-20T10:01:26.942Z,326.25
2018-08-20T10:02:26.880Z,326.25
2018-08-20T10:03:26.805Z,331.88
2018-08-20T10:04:26.743Z,331.88
2018-08-20T10:05:26.678Z,337.50
2018-08-20T10:06:26.603Z,343.13
2018-08-20T10:07:26.586Z,348.75
2018-08-20T10:08:26.465Z,365.63
2018-08-20T10:09:26.397Z,382.50
2018-08-20T10:10:26.328Z,393.75
2018-08-20T10:11:26.261Z,427.50
2018-08-20T10:12:26.193Z,444.38
2018-08-20T10:13:26.126Z,450.00
2018-08-20T10:14:26.063Z,450.00
2018-08-20T10:15:25.998Z,438.75
2018-08-20T10:16:25.924Z,427.50
2018-08-20T10:17:25.858Z,410.63
2018-08-20T10:18:25.810Z,405.00
2018-08-20T10:19:25.722Z,399.38
2018-08-20T10:20:25.652Z,405.00
2018-08-20T10:21:25.585Z,399.38
2018-08-20T10:22:25.519Z,416.25
2018-08-20T10:23:25.450Z,438.75
2018-08-20T10:24:25.382Z,450.00
2018-08-20T10:25:25.318Z,466.88
2018-08-20T10:26:25.247Z,483.75
2018-08-20T10:27:25.177Z,466.88
2018-08-20T10:28:25.114Z,450.00
2018-08-20T10:29:25.049Z,450.00
2018-08-20T10:30:24.976Z,450.00
2018-08-20T10:31:24.907Z,461.25
2018-08-20T10:32:24.845Z,478.13
2018-08-20T10:33:24.772Z,500.63
2018-08-20T10:34:24.707Z,506.25
2018-08-20T10:35:24.637Z,495.00
2018-08-20T10:36:24.573Z,511.88
2018-08-20T10:37:24.504Z,472.50
2018-08-20T10:38:24.437Z,534.38
2018-08-20T10:39:24.368Z,540.00
2018-08-20T10:40:24.300Z,551.25
2018-08-20T10:41:24.239Z,551.25
2018-08-20T10:42:24.167Z,568.13
2018-08-20T10:43:24.099Z,540.00
2018-08-20T10:44:24.036Z,528.75
2018-08-20T10:45:23.966Z,500.63
2018-08-20T10:46:23.899Z,416.25
2018-08-20T10:47:23.837Z,416.25
2018-08-20T10:48:23.767Z,427.50
2018-08-20T10:49:23.697Z,405.00
2018-08-20T10:50:23.634Z,421.88
2018-08-20T10:51:23.564Z,500.63
2018-08-20T10:52:23.496Z,523.13
2018-08-20T10:53:23.430Z,540.00
2018-08-20T10:54:23.367Z,545.63
2018-08-20T10:55:23.302Z,551.25
2018-08-20T10:56:23.309Z,551.25
2018-08-20T10:57:23.167Z,556.88
2018-08-20T10:58:23.096Z,540.00
2018-08-20T10:59:23.028Z,528.75
2018-08-20T11:00:22.962Z,540.00
2018-08-20T11:01:22.894Z,540.00
2018-08-20T11:02:22.831Z,551.25
2018-08-20T11:03:22.760Z,551.25
2018-08-20T11:04:22.694Z,568.13
2018-08-20T11:05:22.627Z,579.38
2018-08-20T11:06:22.560Z,585.00
2018-08-20T11:07:22.499Z,596.25
2018-08-20T11:08:22.429Z,596.25
2018-08-20T11:09:22.364Z,624.38
2018-08-20T11:10:22.293Z,630.00
2018-08-20T11:11:22.230Z,562.50
2018-08-20T11:12:22.165Z,697.50
2018-08-20T11:13:22.097Z,601.88
2018-08-20T11:14:22.032Z,618.75
2018-08-20T11:15:21.960Z,641.25
2018-08-20T11:16:21.897Z,736.88
2018-08-20T11:17:21.835Z,708.75
2018-08-20T11:18:21.830Z,630.00
2018-08-20T11:19:21.695Z,624.38
2018-08-20T11:20:21.631Z,568.13
2018-08-20T11:21:21.563Z,461.25
2018-08-20T11:22:21.498Z,393.75
2018-08-20T11:23:21.430Z,393.75
2018-08-20T11:24:21.366Z,405.00
2018-08-20T11:25:21.298Z,433.13
2018-08-20T11:26:21.235Z,472.50
2018-08-20T11:27:21.165Z,528.75
2018-08-20T11:28:21.098Z,641.25
2018-08-20T11:29:21.033Z,607.50
2018-08-20T11:30:21.069Z,590.63
2018-08-20T11:31:20.900Z,579.38
2018-08-20T11:32:20.834Z,590.63
2018-08-20T11:33:20.768Z,596.25
2018-08-20T11:34:20.701Z,590.63
2018-08-20T11:35:20.634Z,601.88
2018-08-20T11:36:20.569Z,624.38
2018-08-20T11:37:20.505Z,652.50
2018-08-20T11:38:20.435Z,658.13
2018-08-20T11:39:20.373Z,658.13
2018-08-20T11:40:20.304Z,635.63
2018-08-20T11:41:20.236Z,630.00
2018-08-20T11:42:20.170Z,613.13
2018-08-20T11:43:20.151Z,607.50
2018-08-20T11:44:20.042Z,601.88
2018-08-20T11:45:19.978Z,607.50
2018-08-20T11:46:19.908Z,613.13
2018-08-20T11:47:19.840Z,607.50
2018-08-20T11:48:19.772Z,601.88
2018-08-20T11:49:19.707Z,607.50
2018-08-20T11:50:19.641Z,613.13
2018-08-20T11:51:19.579Z,613.13
2018-08-20T11:52:19.512Z,607.50
2018-08-20T11:53:19.467Z,613.13
2018-08-20T11:54:19.378Z,630.00
2018-08-20T11:55:19.311Z,635.63
2018-08-20T11:56:19.248Z,641.25
2018-08-20T11:57:19.180Z,641.25
2018-08-20T11:58:19.117Z,630.00
2018-08-20T11:59:19.049Z,630.00
2018-08-20T12:00:18.979Z,635.63
2018-08-20T12:01:18.920Z,646.88
2018-08-20T12:02:18.850Z,669.38
2018-08-20T12:03:18.783Z,691.88
2018-08-20T12:04:18.717Z,720.00
2018-08-20T12:05:18.656Z,675.00
2018-08-20T12:06:18.588Z,691.88
2018-08-20T12:07:18.524Z,720.00
2018-08-20T12:08:18.455Z,742.50
2018-08-20T12:09:18.390Z,748.13
2018-08-20T12:10:18.328Z,759.38
2018-08-20T12:11:18.280Z,770.63
2018-08-20T12:12:18.194Z,922.50
2018-08-20T12:13:18.136Z,2311.88
2018-08-20T12:14:18.064Z,4061.25
2018-08-20T12:15:18.012Z,5045.63
2018-08-20T12:16:17.945Z,5478.75
2018-08-20T12:17:17.889Z,5304.38
2018-08-20T12:18:17.811Z,4786.88
2018-08-20T12:19:17.745Z,4263.75
2018-08-20T12:20:17.683Z,4303.13
2018-08-20T12:21:17.623Z,5265.00
2018-08-20T12:22:17.567Z,5602.50
2018-08-20T12:23:17.525Z,5315.63
2018-08-20T12:24:17.437Z,5152.50
2018-08-20T12:25:17.380Z,5270.63
2018-08-20T12:26:17.317Z,5208.75
2018-08-20T12:27:17.256Z,5062.50
2018-08-20T12:28:17.205Z,5405.63
2018-08-20T12:29:17.139Z,5281.88
2018-08-20T12:30:17.080Z,3847.50
2018-08-20T12:31:17.022Z,4770.00
2018-08-20T12:32:16.963Z,5028.75
2018-08-20T12:33:16.910Z,4933.13
2018-08-20T12:34:16.863Z,5130.00
2018-08-20T12:35:16.791Z,5473.13
2018-08-20T12:36:16.735Z,5287.50
2018-08-20T12:37:16.676Z,5236.88
2018-08-20T12:38:16.621Z,5355.00
2018-08-20T12:39:16.564Z,5259.38
2018-08-20T12:40:16.576Z,5191.88
2018-08-20T12:41:16.457Z,5158.13
2018-08-20T12:42:16.398Z,5175.00
2018-08-20T12:43:16.342Z,5073.75
2018-08-20T12:44:16.288Z,5231.25
2018-08-20T12:45:16.232Z,5411.25